createdAt,value
2019-03-22T00:01:46.144Z,6
2019-03-22T00:06:51.514Z,6
2019-03-22T00:11:56.872Z,6
2019-03-22T00:17:02.192Z,5.9
2019-03-22T00:22:07.265Z,5.9
2019-03-22T00:27:18.515Z,5.8
2019-03-22T00:32:13.668Z,5.8
2019-03-22T00:37:18.828Z,5.8
2019-03-22T00:42:23.969Z,5.7
2019-03-22T00:47:30.552Z,5.6
2019-03-22T00:52:35.748Z,5.5
2019-03-22T00:57:41.133Z,5.4
2019-03-22T01:02:46.284Z,5.2
2019-03-22T01:07:51.567Z,5.1
2019-03-22T01:12:55.362Z,5.1
2019-03-22T01:18:00.898Z,5.1
2019-03-22T01:23:04.892Z,5.1
2019-03-22T01:28:10.367Z,5.1
2019-03-22T01:33:15.690Z,5
2019-03-22T01:38:21.032Z,5
2019-03-22T01:43:26.217Z,4.9
2019-03-22T01:48:31.680Z,4.8
2019-03-22T01:53:36.860Z,4.8
2019-03-22T01:58:42.707Z,4.7
2019-03-22T02:03:46.413Z,4.6
2019-03-22T02:08:52.486Z,4.4
2019-03-22T02:13:57.889Z,4.4
2019-03-22T02:19:03.253Z,4.3
2019-03-22T02:24:08.270Z,4.2
2019-03-22T02:29:13.581Z,4.2
2019-03-22T02:34:19.061Z,4.1
2019-03-22T02:39:23.603Z,4.1
2019-03-22T02:44:29.121Z,4.1
2019-03-22T02:49:34.300Z,4.1
2019-03-22T02:54:39.374Z,4.1
2019-03-22T02:59:44.516Z,4.1
2019-03-22T03:04:49.966Z,4
2019-03-22T03:09:55.296Z,4.1
2019-03-22T03:15:00.683Z,4
2019-03-22T03:20:05.990Z,4
2019-03-22T03:25:09.850Z,3.9
2019-03-22T03:30:15.532Z,3.9
2019-03-22T03:40:25.036Z,3.8
2019-03-22T03:45:30.200Z,3.8
2019-03-22T03:50:35.597Z,3.7
2019-03-22T03:55:40.945Z,3.5
2019-03-22T04:00:44.661Z,3.5
2019-03-22T04:05:49.833Z,3.4
2019-03-22T04:10:55.153Z,3.4
2019-03-22T04:16:03.093Z,3.3
2019-03-22T04:21:08.315Z,3.3
2019-03-22T04:26:13.746Z,3.3
2019-03-22T04:31:19.275Z,3.3
2019-03-22T04:36:24.929Z,3.4
2019-03-22T04:41:30.297Z,3.3
2019-03-22T04:46:35.665Z,3.3
2019-03-22T04:51:41.342Z,3.2
2019-03-22T04:56:46.654Z,3.2
2019-03-22T05:01:52.287Z,3.3
2019-03-22T05:06:57.238Z,3.4
2019-03-22T05:12:02.481Z,3.5
2019-03-22T05:17:07.651Z,3.6
2019-03-22T05:22:13.166Z,3.8
2019-03-22T05:27:18.441Z,3.9
2019-03-22T05:32:24.041Z,4.3
2019-03-22T05:37:29.407Z,4.6
2019-03-22T05:42:33.402Z,5.1
2019-03-22T05:47:38.612Z,5.5
2019-03-22T05:52:44.432Z,5.8
2019-03-22T05:57:49.794Z,6.3
2019-03-22T06:02:55.150Z,6.8
2019-03-22T06:08:00.185Z,7.2
2019-03-22T06:13:06.292Z,7.7
2019-03-22T06:18:11.448Z,8.3
2019-03-22T06:23:16.757Z,8.8
2019-03-22T06:28:20.773Z,9.3
2019-03-22T06:33:25.979Z,9.8
2019-03-22T06:38:30.033Z,10.3
2019-03-22T06:43:35.371Z,10.9
2019-03-22T06:48:39.110Z,11.3
2019-03-22T06:53:44.509Z,11.8
2019-03-22T06:58:49.720Z,12.4
2019-03-22T07:03:54.887Z,12.9
2019-03-22T07:08:59.775Z,13.3
2019-03-22T07:14:03.455Z,13.7
2019-03-22T07:19:08.424Z,14.3
2019-03-22T07:24:13.746Z,14.9
2019-03-22T07:29:19.043Z,15.6
2019-03-22T07:34:24.465Z,16.6
2019-03-22T07:39:30.037Z,19.1
2019-03-22T07:44:35.172Z,19
2019-03-22T07:49:38.840Z,20.8
2019-03-22T07:54:44.179Z,22.8
2019-03-22T07:59:49.572Z,24.8
2019-03-22T08:04:49.873Z,26.2
2019-03-22T08:09:54.966Z,28.4
2019-03-22T08:15:00.573Z,29.7
2019-03-22T08:20:05.852Z,30.7
2019-03-22T08:25:11.143Z,31.5
2019-03-22T08:30:14.637Z,32.3
2019-03-22T08:35:19.803Z,31.3
2019-03-22T08:40:25.268Z,30.8
2019-03-22T08:45:30.915Z,31.2
2019-03-22T08:50:36.386Z,31.1
2019-03-22T08:55:41.935Z,30.2
2019-03-22T09:00:59.353Z,31.4
2019-03-22T09:05:55.079Z,32.2
2019-03-22T09:11:00.334Z,32.2
2019-03-22T09:16:05.719Z,32.1
2019-03-22T09:21:10.869Z,31
2019-03-22T09:26:16.512Z,30.3
2019-03-22T09:31:23.040Z,30.2
2019-03-22T09:36:28.515Z,30.1
2019-03-22T09:41:34.166Z,29.5
2019-03-22T09:46:39.415Z,29.5
2019-03-22T09:51:44.750Z,29.4
2019-03-22T09:56:50.132Z,30.1
2019-03-22T10:01:55.536Z,30.4
2019-03-22T10:07:00.789Z,30.7
2019-03-22T10:12:06.236Z,31.2
2019-03-22T10:17:10.338Z,32.2
2019-03-22T10:22:15.416Z,31.4
2019-03-22T10:27:20.639Z,32.3
2019-03-22T10:32:25.903Z,32.3
2019-03-22T10:37:29.704Z,31.7
2019-03-22T10:42:35.289Z,31
2019-03-22T10:47:41.541Z,31
2019-03-22T10:52:47.970Z,31.1
2019-03-22T10:57:57.181Z,32.3
2019-03-22T11:03:02.601Z,32.3
2019-03-22T11:08:07.956Z,33.3
2019-03-22T11:13:13.162Z,32.6
2019-03-22T11:18:18.689Z,32.7
2019-03-22T11:23:24.028Z,33.1
2019-03-22T11:28:29.228Z,33.5
2019-03-22T11:33:32.926Z,34
2019-03-22T11:38:38.263Z,34.7
2019-03-22T11:43:43.803Z,36
2019-03-22T11:48:49.063Z,35.9
2019-03-22T11:53:54.368Z,35.4
2019-03-22T11:58:58.197Z,35.4
2019-03-22T12:04:03.487Z,36.3
2019-03-22T12:09:08.702Z,36.3
2019-03-22T12:14:14.409Z,37
2019-03-22T12:19:19.761Z,37
2019-03-22T12:24:24.846Z,36.6
2019-03-22T12:29:31.448Z,36.7
2019-03-22T12:34:38.795Z,36.6
2019-03-22T12:39:44.408Z,37
2019-03-22T12:44:49.824Z,37.8
2019-03-22T12:49:55.167Z,37.8
2019-03-22T12:55:00.387Z,38.1
2019-03-22T13:00:05.620Z,36.5
2019-03-22T13:05:10.589Z,35.6
2019-03-22T13:10:15.681Z,34.3
2019-03-22T13:15:20.641Z,31.5
2019-03-22T13:20:24.449Z,29.6
2019-03-22T13:25:29.764Z,28.1
2019-03-22T13:30:35.375Z,25.6
2019-03-22T13:35:41.052Z,23.8
2019-03-22T13:40:44.787Z,23.7
2019-03-22T13:45:50.335Z,22.4
2019-03-22T13:50:55.550Z,22.3
2019-03-22T13:56:01.828Z,22
2019-03-22T14:01:08.000Z,21.7
2019-03-22T14:06:13.501Z,21
2019-03-22T14:11:19.210Z,20.8
2019-03-22T14:16:24.510Z,20.7
2019-03-22T14:21:29.667Z,20.2
2019-03-22T14:26:34.788Z,19.8
2019-03-22T14:31:39.972Z,19.6
2019-03-22T14:36:45.958Z,19.5
2019-03-22T14:41:50.185Z,19.3
2019-03-22T14:46:55.594Z,19.3
2019-03-22T14:52:00.813Z,19.2
2019-03-22T14:57:05.864Z,19.2
2019-03-22T15:02:12.788Z,19.1
2019-03-22T15:07:21.881Z,18.9
2019-03-22T15:12:27.324Z,18.9
2019-03-22T15:17:32.667Z,18.8
2019-03-22T15:22:38.549Z,18.5
2019-03-22T15:27:44.167Z,18.5
2019-03-22T15:32:49.531Z,18.5
2019-03-22T15:37:54.743Z,18.4
2019-03-22T15:43:00.063Z,18.2
2019-03-22T15:48:05.468Z,18.1
2019-03-22T15:53:10.840Z,18
2019-03-22T15:58:16.036Z,18
2019-03-22T16:03:22.393Z,17.9
2019-03-22T16:08:27.684Z,17.8
2019-03-22T16:13:35.500Z,17.8
2019-03-22T16:18:41.422Z,17.7
2019-03-22T16:23:45.070Z,17.7
2019-03-22T16:28:50.122Z,17.6
2019-03-22T16:33:57.520Z,17.3
2019-03-22T16:39:02.694Z,17.3
2019-03-22T16:44:07.938Z,17.2
2019-03-22T16:49:13.593Z,16.8
2019-03-22T16:54:18.843Z,16.8
2019-03-22T16:59:23.946Z,16.6
2019-03-22T17:04:27.589Z,16.4
2019-03-22T17:09:32.778Z,16.2
2019-03-22T17:14:38.984Z,16
2019-03-22T17:19:45.973Z,15.7
2019-03-22T17:24:51.185Z,15.7
2019-03-22T17:29:56.239Z,15.5
2019-03-22T17:35:01.605Z,15.4
2019-03-22T17:40:06.811Z,15.3
2019-03-22T17:45:12.426Z,15.2
2019-03-22T17:50:18.137Z,15
2019-03-22T17:55:23.364Z,15
2019-03-22T18:00:28.684Z,14.9
2019-03-22T18:05:34.437Z,14.9
2019-03-22T18:10:39.744Z,14.8
2019-03-22T18:15:45.076Z,14.8
2019-03-22T18:20:50.206Z,14.6
2019-03-22T18:25:55.823Z,14.4
2019-03-22T18:31:00.941Z,14.1
2019-03-22T18:36:06.250Z,13.7
2019-03-22T18:41:11.465Z,13.5
2019-03-22T18:46:16.697Z,13.4
2019-03-22T18:51:16.790Z,13.2
2019-03-22T18:56:21.733Z,13
2019-03-22T19:01:25.371Z,12.9
2019-03-22T19:06:30.459Z,12.8
2019-03-22T19:11:35.799Z,12.6
2019-03-22T19:16:41.213Z,12.4
2019-03-22T19:21:46.181Z,12.3
2019-03-22T19:26:51.637Z,12.1
2019-03-22T19:31:56.678Z,12
2019-03-22T19:37:01.981Z,11.9
2019-03-22T19:42:07.213Z,11.8
2019-03-22T19:47:12.480Z,11.7
2019-03-22T19:52:20.873Z,11.5
2019-03-22T19:57:26.048Z,11.4
2019-03-22T20:02:31.303Z,11.4
2019-03-22T20:07:36.837Z,11.4
2019-03-22T20:12:41.979Z,11.3
2019-03-22T20:17:47.341Z,11.3
2019-03-22T20:22:52.739Z,11.2
2019-03-22T20:27:56.733Z,11.2
2019-03-22T20:33:02.223Z,11.2
2019-03-22T20:38:07.740Z,11.2
2019-03-22T20:43:12.754Z,11.1
2019-03-22T20:48:17.920Z,11.1
2019-03-22T20:53:23.761Z,11.1
2019-03-22T20:58:27.898Z,11
2019-03-22T21:03:34.431Z,10.9
2019-03-22T21:08:39.717Z,10.9
2019-03-22T21:13:44.771Z,10.8
2019-03-22T21:18:50.744Z,10.7
2019-03-22T21:23:56.197Z,10.6
2019-03-22T21:29:00.035Z,10.5
2019-03-22T21:34:06.145Z,10.3
2019-03-22T21:39:10.356Z,10.3
2019-03-22T21:44:15.724Z,10.2
2019-03-22T21:49:21.073Z,10.1
2019-03-22T21:54:26.337Z,10
2019-03-22T21:59:32.164Z,9.9
2019-03-22T22:04:37.836Z,9.8
2019-03-22T22:09:43.413Z,9.8
2019-03-22T22:14:48.800Z,9.7
2019-03-22T22:19:54.222Z,9.5
2019-03-22T22:24:59.422Z,9.4
2019-03-22T22:30:04.796Z,9.2
2019-03-22T22:35:08.879Z,9
2019-03-22T22:40:14.076Z,8.9
2019-03-22T22:45:18.204Z,8.7
2019-03-22T22:50:22.102Z,8.5
2019-03-22T22:55:27.231Z,8.3
2019-03-22T23:00:32.578Z,8.4
2019-03-22T23:05:37.988Z,8.4
2019-03-22T23:10:43.516Z,8.5
2019-03-22T23:15:49.249Z,8.6
2019-03-22T23:20:54.531Z,8.7
2019-03-22T23:25:59.747Z,8.8
2019-03-22T23:31:05.041Z,8.8
2019-03-22T23:36:19.471Z,8.8
2019-03-22T23:41:15.273Z,8.8
2019-03-22T23:46:20.238Z,8.9
2019-03-22T23:51:24.075Z,8.9
2019-03-22T23:56:29.229Z,8.9
